createdAt,value
2022-12-04T00:12:40.871Z,1.75
2022-12-04T00:32:40.970Z,1.78
2022-12-04T00:52:40.834Z,1.79
2022-12-04T01:12:40.826Z,1.90
2022-12-04T01:32:40.849Z,1.88
2022-12-04T01:52:40.879Z,1.85
2022-12-04T02:12:40.957Z,1.90
2022-12-04T02:32:40.939Z,2.00
2022-12-04T02:52:40.839Z,2.08
2022-12-04T03:12:40.817Z,2.05
2022-12-04T03:32:40.829Z,2.20
2022-12-04T03:52:40.849Z,2.31
2022-12-04T04:12:40.889Z,2.52
2022-12-04T04:32:40.887Z,2.43
2022-12-04T04:52:40.883Z,2.60
2022-12-04T05:12:40.896Z,2.69
2022-12-04T05:32:40.824Z,2.60
2022-12-04T05:52:40.901Z,2.44
2022-12-04T06:12:40.852Z,2.60
2022-12-04T06:32:40.858Z,2.49
2022-12-04T06:52:40.949Z,2.33
2022-12-04T07:12:40.961Z,2.45
2022-12-04T07:32:40.897Z,2.59
2022-12-04T08:12:40.851Z,2.76
2022-12-04T08:32:40.871Z,2.98
2022-12-04T08:52:40.826Z,3.05
2022-12-04T09:12:40.844Z,3.13
2022-12-04T09:32:40.891Z,3.31
2022-12-04T09:52:40.906Z,3.42
2022-12-04T10:12:40.790Z,3.72
2022-12-04T10:32:40.896Z,3.65
2022-12-04T10:52:40.863Z,3.61
2022-12-04T11:12:40.920Z,3.55
2022-12-04T11:32:40.928Z,3.70
2022-12-04T11:52:40.804Z,3.90
2022-12-04T12:12:40.995Z,3.92
2022-12-04T12:32:41.039Z,3.79
2022-12-04T12:52:40.862Z,3.81
2022-12-04T13:12:40.841Z,3.72
2022-12-04T13:32:40.871Z,3.52
2022-12-04T13:52:41.061Z,3.55
2022-12-04T14:12:40.856Z,3.70
2022-12-04T14:32:40.765Z,3.85
2022-12-04T14:52:40.774Z,3.91
2022-12-04T15:12:40.796Z,3.94
2022-12-04T15:32:40.819Z,3.87
2022-12-04T15:52:40.843Z,3.80
2022-12-04T16:12:40.777Z,3.81
2022-12-04T16:32:40.763Z,3.70
2022-12-04T16:52:40.772Z,3.45
2022-12-04T17:12:40.791Z,3.35
2022-12-04T17:32:40.806Z,3.42
2022-12-04T17:52:40.852Z,3.45
2022-12-04T18:12:40.755Z,3.45
2022-12-04T18:32:40.747Z,3.39
2022-12-04T18:52:40.771Z,3.47
2022-12-04T19:12:40.785Z,3.45
2022-12-04T19:32:40.801Z,3.53
2022-12-04T19:52:40.708Z,3.59
2022-12-04T20:12:40.724Z,3.51
2022-12-04T20:32:40.736Z,3.52
2022-12-04T20:52:40.741Z,3.50
2022-12-04T21:12:40.752Z,3.37
2022-12-04T21:32:40.769Z,3.30
2022-12-04T21:52:40.778Z,3.19
2022-12-04T22:12:40.691Z,3.13
2022-12-04T22:32:40.700Z,3.00
2022-12-04T22:52:40.716Z,3.18
2022-12-04T23:12:40.727Z,3.09
2022-12-04T23:32:40.738Z,2.89
2022-12-04T23:52:40.744Z,2.94
